Time;durP1;ratioP1;P1;durP2;ratioP2;P2;SDS_P1;SDS_P2;PMS_P1;PMS_P2;Temp;Humidity;BMP_temperature;BMP_pressure;BME280_temperature;BME280_humidity;BME280_pressure;Samples;Min_cycle;Max_cycle;Signal;HPM_P1;HPM_P2
2021/11/01 00:01:33;;;;;;;48.87;28.83;;;;;;;4.52;77.04;98397.23;2170348;81;20926;-80
2021/11/01 00:04:33;;;;;;;44.20;27.13;;;;;;;4.53;76.08;98392.11;2172805;81;20949;-79
2021/11/01 00:07:34;;;;;;;47.10;27.27;;;;;;;4.50;76.08;98396.31;2171274;82;20926;-79
2021/11/01 00:10:34;;;;;;;45.87;26.13;;;;;;;4.44;76.28;98395.72;2171612;81;20913;-80
2021/11/01 00:13:35;;;;;;;45.67;27.33;;;;;;;4.42;76.14;98393.51;2169620;81;21396;-80
2021/11/01 00:16:35;;;;;;;46.13;27.20;;;;;;;4.40;76.68;98388.30;2169918;81;21024;-80
2021/11/01 00:19:36;;;;;;;46.70;26.67;;;;;;;4.39;76.08;98381.38;2171484;81;20943;-80
2021/11/01 00:22:36;;;;;;;43.80;26.67;;;;;;;4.40;76.20;98383.13;2170242;81;20901;-79
2021/11/01 00:25:37;;;;;;;42.50;24.77;;;;;;;4.41;76.08;98389.17;2172310;81;20953;-79
2021/11/01 00:28:38;;;;;;;41.17;26.07;;;;;;;4.39;76.15;98382.67;2170221;81;20925;-78
2021/11/01 00:31:39;;;;;;;41.87;27.17;;;;;;;4.36;76.19;98383.88;2171159;81;20996;-79
2021/11/01 00:34:41;;;;;;;46.27;26.70;;;;;;;4.36;75.99;98388.16;2168653;81;20992;-78
2021/11/01 00:37:42;;;;;;;43.47;27.70;;;;;;;4.33;75.99;98383.75;2169757;81;20997;-79
2021/11/01 00:40:42;;;;;;;43.17;25.67;;;;;;;4.31;76.00;98374.20;2172000;81;20902;-79
2021/11/01 00:43:43;;;;;;;43.87;27.07;;;;;;;4.26;75.99;98372.78;2171645;81;21016;-78
2021/11/01 00:46:43;;;;;;;42.30;25.87;;;;;;;4.23;76.12;98370.52;2173259;81;20971;-79
2021/11/01 00:49:44;;;;;;;42.17;26.03;;;;;;;4.20;76.42;98364.85;2173153;81;21344;-78
2021/11/01 00:52:44;;;;;;;47.30;26.60;;;;;;;4.17;76.06;98354.43;2173248;81;21340;-79
2021/11/01 00:55:49;;;;;;;38.83;24.97;;;;;;;4.14;76.25;98347.88;2173158;81;20957;-80
2021/11/01 00:58:50;;;;;;;;;;;;;;;4.09;76.38;98346.45;2175807;81;20937;-79
2021/11/01 01:01:51;;;;;;;43.57;26.07;;;;;;;4.04;76.45;98345.45;2173158;81;20126;-79
2021/11/01 01:04:51;;;;;;;46.73;24.43;;;;;;;4.00;76.34;98336.27;2173161;81;20960;-79
2021/11/01 01:07:52;;;;;;;45.00;26.20;;;;;;;3.96;76.60;98333.14;2173181;81;21396;-79
2021/11/01 01:10:53;;;;;;;39.67;25.47;;;;;;;3.95;76.49;98336.14;2172759;81;21028;-79
2021/11/01 01:13:54;;;;;;;40.73;25.70;;;;;;;3.93;76.64;98342.97;2172323;81;21008;-79
2021/11/01 01:16:56;;;;;;;43.00;26.73;;;;;;;3.91;76.42;98332.13;2173286;81;21039;-79
2021/11/01 01:20:09;;;;;;;42.73;25.17;;;;;;;3.86;76.82;98326.83;2173221;82;20953;-79
2021/11/01 01:23:08;;;;;;;46.03;27.53;;;;;;;3.87;76.92;98330.28;2173172;81;20992;-79
2021/11/01 01:26:14;;;;;;;37.07;24.33;;;;;;;3.88;76.78;98325.58;2172601;81;20933;-79
2021/11/01 01:29:12;;;;;;;38.30;24.60;;;;;;;3.86;76.82;98326.83;2171283;81;21040;-80
2021/11/01 01:32:12;;;;;;;39.17;24.27;;;;;;;3.86;77.01;98318.20;2171757;81;21019;-80
2021/11/01 01:35:13;;;;;;;40.50;24.03;;;;;;;3.84;76.84;98322.03;2171913;81;20963;-80
2021/11/01 01:38:14;;;;;;;34.60;22.97;;;;;;;3.83;76.63;98316.41;2172040;81;20952;-79
2021/11/01 01:41:14;;;;;;;42.17;25.50;;;;;;;3.80;76.99;98320.19;2172053;82;21403;-80
2021/11/01 01:44:15;;;;;;;45.20;24.17;;;;;;;3.77;76.67;98317.10;2176799;81;21383;-80
2021/11/01 01:47:16;;;;;;;40.33;24.93;;;;;;;3.76;76.75;98312.77;2175076;82;21021;-79
2021/11/01 01:50:17;;;;;;;39.93;23.23;;;;;;;3.73;76.72;98315.26;2171138;81;21344;-79
2021/11/01 01:53:17;;;;;;;36.30;23.97;;;;;;;3.73;76.79;98311.39;2171118;81;21008;-79
2021/11/01 01:56:18;;;;;;;44.27;24.77;;;;;;;3.72;76.79;98311.34;2170006;81;20929;-80
2021/11/01 01:59:19;;;;;;;44.67;25.67;;;;;;;3.70;76.94;98308.72;2170376;81;20953;-79
2021/11/01 02:02:19;;;;;;;40.20;25.03;;;;;;;3.70;76.93;98304.84;2171114;82;20969;-79
2021/11/01 02:05:20;;;;;;;36.53;23.27;;;;;;;3.70;76.89;98297.52;2171281;81;20953;-79
2021/11/01 02:08:20;;;;;;;37.53;25.27;;;;;;;3.67;76.87;98295.72;2171020;81;20957;-79
2021/11/01 02:11:22;;;;;;;37.80;24.17;;;;;;;3.63;76.94;98293.87;2171214;82;20964;-80
2021/11/01 02:14:22;;;;;;;44.93;25.03;;;;;;;3.60;77.00;98287.74;2171171;81;21084;-79
2021/11/01 02:17:23;;;;;;;37.03;23.63;;;;;;;3.60;77.04;98286.45;2171052;81;21079;-79
2021/11/01 02:20:23;;;;;;;39.00;23.40;;;;;;;3.62;77.36;98286.96;2169928;81;21007;-79
2021/11/01 02:23:24;;;;;;;34.40;22.23;;;;;;;3.65;77.39;98290.92;2170374;81;20965;-79
2021/11/01 02:26:24;;;;;;;40.03;22.73;;;;;;;3.67;77.17;98280.23;2170822;81;20921;-79
2021/11/01 02:29:26;;;;;;;31.03;21.17;;;;;;;3.66;76.96;98278.48;2170817;81;20937;-78
2021/11/01 02:32:27;;;;;;;34.43;20.93;;;;;;;3.67;77.11;98281.94;2171001;81;20985;-79
2021/11/01 02:35:27;;;;;;;33.93;22.13;;;;;;;3.66;77.09;98273.73;2170919;81;20992;-79
2021/11/01 02:38:31;;;;;;;35.03;22.07;;;;;;;3.64;76.88;98267.23;2171087;81;20921;-78
2021/11/01 02:41:35;;;;;;;38.20;22.58;;;;;;;3.62;76.82;98268.89;2171134;81;20964;-79
2021/11/01 02:44:35;;;;;;;36.63;23.13;;;;;;;3.61;76.79;98272.30;2172305;81;20980;-79
2021/11/01 02:47:36;;;;;;;31.97;21.07;;;;;;;3.61;76.79;98268.44;2173059;81;20980;-79
2021/11/01 02:50:36;;;;;;;34.03;21.60;;;;;;;3.59;76.74;98267.92;2173198;81;20961;-79
2021/11/01 02:53:37;;;;;;;35.10;21.87;;;;;;;3.56;76.80;98263.55;2173368;81;20964;-79
2021/11/01 02:56:37;;;;;;;35.87;23.27;;;;;;;3.56;77.22;98259.68;2173365;81;20940;-80
2021/11/01 02:59:38;;;;;;;38.13;22.90;;;;;;;3.58;76.99;98254.15;2172729;81;20968;-79
2021/11/01 03:02:38;;;;;;;32.13;21.60;;;;;;;3.55;76.87;98254.06;2172865;81;20964;-80
2021/11/01 03:05:39;;;;;;;32.67;22.07;;;;;;;3.56;77.06;98253.23;2172522;81;21000;-79
2021/11/01 03:08:39;;;;;;;33.43;21.30;;;;;;;3.54;76.94;98247.56;2172870;81;20913;-79
2021/11/01 03:11:40;;;;;;;39.57;21.23;;;;;;;3.53;77.19;98247.98;2172727;81;20934;-79
2021/11/01 03:14:42;;;;;;;35.27;21.90;;;;;;;3.50;77.21;98238.44;2172296;82;20989;-79
2021/11/01 03:17:43;;;;;;;32.27;22.13;;;;;;;3.51;77.30;98236.32;2173061;81;21064;-79
2021/11/01 03:20:43;;;;;;;38.60;23.10;;;;;;;3.51;77.18;98236.73;2173028;81;20957;-79
2021/11/01 03:23:44;;;;;;;31.67;20.57;;;;;;;3.52;77.36;98237.20;2172291;81;20976;-78
2021/11/01 03:26:44;;;;;;;36.37;22.87;;;;;;;3.53;77.38;98236.78;2173023;81;20952;-79
2021/11/01 03:29:45;;;;;;;30.70;21.00;;;;;;;3.54;77.33;98229.50;2172623;81;20972;-79
2021/11/01 03:32:45;;;;;;;32.97;21.47;;;;;;;3.55;77.32;98232.13;2172202;81;21371;-79
2021/11/01 03:35:46;;;;;;;31.03;20.80;;;;;;;3.55;77.25;98226.96;2173141;81;21360;-79
2021/11/01 03:38:47;;;;;;;30.73;20.07;;;;;;;3.55;77.29;98217.93;2172915;81;21007;-78
2021/11/01 03:41:47;;;;;;;31.87;20.73;;;;;;;3.55;77.41;98215.34;2173010;81;20945;-79
2021/11/01 03:44:53;;;;;;;30.83;20.17;;;;;;;3.56;77.36;98219.68;2172735;81;20985;-78
2021/11/01 03:47:51;;;;;;;33.67;20.80;;;;;;;3.57;77.16;98216.27;2171813;81;21080;-80
2021/11/01 03:51:08;;;;;;;34.73;21.77;;;;;;;3.58;77.15;98214.56;2172721;82;20997;-79
2021/11/01 03:54:03;;;;;;;30.37;20.97;;;;;;;3.58;77.20;98215.44;2172461;81;21075;-78
2021/11/01 03:57:04;;;;;;;34.10;21.47;;;;;;;3.59;77.03;98222.35;2172887;81;20983;-79
2021/11/01 04:00:05;;;;;;;30.37;21.67;;;;;;;3.60;76.98;98214.19;2172748;81;21327;-79
2021/11/01 04:03:06;;;;;;;31.40;19.97;;;;;;;3.58;76.90;98214.15;2172955;81;20941;-79
2021/11/01 04:06:07;;;;;;;31.77;19.60;;;;;;;3.56;76.80;98211.94;2173023;81;21403;-79
2021/11/01 04:09:08;;;;;;;30.87;20.03;;;;;;;3.55;76.72;98211.89;2172421;81;20981;-78
2021/11/01 04:12:09;;;;;;;31.43;21.00;;;;;;;3.53;76.72;98205.40;2172644;81;21058;-79
2021/11/01 04:15:24;;;;;;;30.20;19.57;;;;;;;3.54;76.83;98212.31;2172835;81;20937;-79
2021/11/01 04:18:27;;;;;;;28.57;20.30;;;;;;;3.53;76.82;98206.69;2172931;81;21115;-78
2021/11/01 04:21:26;;;;;;;35.13;22.87;;;;;;;3.53;76.74;98207.10;2172112;81;21028;-79
2021/11/01 04:24:30;;;;;;;32.67;20.70;;;;;;;3.50;76.80;98204.89;2171447;81;21024;-78
2021/11/01 04:27:29;;;;;;;31.73;21.77;;;;;;;3.49;76.62;98210.01;2170846;81;21044;-79
2021/11/01 04:30:36;;;;;;;34.00;21.17;;;;;;;3.47;76.60;98198.77;2171198;81;21400;-79
2021/11/01 04:33:33;;;;;;;33.47;21.50;;;;;;;3.43;76.67;98201.64;2171209;81;21507;-79
2021/11/01 04:36:33;;;;;;;32.20;20.30;;;;;;;3.42;76.89;98200.30;2171166;81;21400;-78
2021/11/01 04:39:43;;;;;;;33.03;20.67;;;;;;;3.38;76.76;98198.05;2172221;81;20996;-78
2021/11/01 04:55:52;;;;;;;34.40;21.73;;;;;;;3.23;77.02;98192.85;2171282;82;21009;-80
2021/11/01 04:58:53;;;;;;;34.33;22.43;;;;;;;3.20;77.53;98198.38;2173415;81;20921;-80
2021/11/01 05:01:54;;;;;;;35.10;22.27;;;;;;;3.18;77.38;98189.72;2173503;81;21009;-79
2021/11/01 05:04:55;;;;;;;32.97;21.87;;;;;;;3.17;77.39;98190.55;2173387;81;21348;-79
2021/11/01 05:07:58;;;;;;;39.13;22.73;;;;;;;3.14;77.32;98190.45;2173518;82;20953;-79
2021/11/01 05:11:02;;;;;;;36.83;22.53;;;;;;;3.10;77.42;98193.77;2173459;81;21017;-80
2021/11/01 05:14:02;;;;;;;36.63;21.87;;;;;;;3.08;77.46;98188.98;2172547;81;21443;-80
2021/11/01 05:20:27;;;;;;;36.37;22.57;;;;;;;3.05;77.78;98186.31;2162295;82;20917;-80
2021/11/01 05:26:40;;;;;;;36.20;21.73;;;;;;;2.98;78.02;98183.08;2162496;82;20964;-79
2021/11/01 05:29:31;;;;;;;32.60;20.57;;;;;;;2.98;77.90;98185.66;2172323;81;21013;-80
2021/11/01 05:32:33;;;;;;;36.33;22.07;;;;;;;2.99;78.02;98182.25;2173093;82;21364;-79
2021/11/01 05:35:34;;;;;;;29.07;18.93;;;;;;;2.97;78.24;98182.62;2173119;81;21296;-79
2021/11/01 05:38:35;;;;;;;34.60;21.53;;;;;;;2.99;78.24;98183.54;2173267;81;20962;-79
2021/11/01 05:41:36;;;;;;;32.57;20.67;;;;;;;3.00;78.19;98178.84;2172602;81;21000;-80
2021/11/01 05:44:37;;;;;;;33.33;21.73;;;;;;;2.99;78.24;98182.25;2175346;81;21035;-79
2021/11/01 05:47:40;;;;;;;33.80;20.27;;;;;;;2.97;78.31;98180.04;2179848;82;21024;-79
2021/11/01 05:50:40;;;;;;;31.97;20.43;;;;;;;2.99;78.30;98178.38;2176799;81;21009;-79
2021/11/01 05:53:42;;;;;;;31.77;20.70;;;;;;;3.00;78.46;98173.69;2170986;81;21012;-79
2021/11/01 06:00:05;;;;;;;32.00;21.10;;;;;;;3.06;78.22;98174.29;2161960;82;20949;-78
2021/11/01 06:03:02;;;;;;;32.50;21.37;;;;;;;3.10;78.19;98180.00;2169398;81;20972;-78
2021/11/01 06:06:21;;;;;;;32.13;21.93;;;;;;;3.13;78.12;98174.52;2169500;81;21348;-79
2021/11/01 06:15:45;;;;;;;31.80;20.93;;;;;;;3.30;77.74;98173.73;2169381;82;21036;-78
2021/11/01 06:18:46;;;;;;;31.73;20.30;;;;;;;3.37;77.85;98169.22;2169148;81;21024;-78
2021/11/01 06:21:48;;;;;;;29.47;20.83;;;;;;;3.47;77.59;98170.39;2168697;81;21008;-79
2021/11/01 06:24:51;;;;;;;30.33;19.83;;;;;;;3.59;77.30;98171.16;2169474;81;21091;-78
2021/11/01 06:27:54;;;;;;;33.40;20.73;;;;;;;3.71;77.03;98163.34;2169200;81;20988;-78
2021/11/01 06:30:58;;;;;;;31.00;20.50;;;;;;;3.85;76.70;98168.88;2170820;82;20992;-78
2021/11/01 06:43:44;;;;;;;28.80;19.53;;;;;;;4.34;75.23;98168.49;2161927;82;20948;-78
2021/11/01 06:50:00;;;;;;;27.17;18.47;;;;;;;4.64;74.79;98176.12;2171685;81;21072;-77
2021/11/01 07:16:17;;;;;;;25.30;17.80;;;;;;;6.04;70.89;98161.53;2173044;82;21360;-79
2021/11/01 08:22:22;;;;;;;24.07;16.87;;;;;;;8.37;64.31;98128.99;2172907;82;21018;-78
2021/11/01 08:44:37;;;;;;;22.93;17.07;;;;;;;9.41;61.60;98119.78;2162781;82;21016;-78
2021/11/01 09:07:18;;;;;;;19.80;15.37;;;;;;;10.47;58.58;98102.77;2109558;84;20905;-77
2021/11/01 09:26:00;;;;;;;19.62;13.98;;;;;;;11.25;56.98;98098.77;2109071;84;21015;-79
2021/11/01 09:29:00;;;;;;;19.07;14.13;;;;;;;11.42;56.49;98097.00;2129096;84;20986;-78
2021/11/01 09:38:58;;;;;;;17.87;12.73;;;;;;;11.66;55.60;98088.19;2129645;83;21415;-78
2021/11/01 09:41:57;;;;;;;18.32;13.85;;;;;;;11.73;55.17;98081.61;2128149;83;21366;-78
2021/11/01 09:44:57;;;;;;;20.48;13.80;;;;;;;11.87;55.18;98082.02;2136957;81;21075;-79
2021/11/01 09:47:58;;;;;;;17.90;14.07;;;;;;;11.95;53.55;98078.92;2171451;82;20937;-79
2021/11/01 09:50:58;;;;;;;20.92;14.30;;;;;;;12.05;55.12;98078.85;2170527;81;21277;-78
2021/11/01 09:53:59;;;;;;;17.25;13.40;;;;;;;12.16;55.19;98076.20;2170827;81;21419;-78
2021/11/01 09:57:25;;;;;;;16.27;13.03;;;;;;;12.27;54.30;98069.59;2170859;81;20973;-79
2021/11/01 10:00:02;;;;;;;16.32;13.15;;;;;;;12.35;54.31;98069.95;2169455;82;20956;-79
2021/11/01 10:03:02;;;;;;;18.55;12.82;;;;;;;12.44;53.12;98063.78;2170667;81;21328;-78
2021/11/01 10:06:03;;;;;;;15.30;13.25;;;;;;;12.49;53.33;98061.12;2170739;82;20989;-77
2021/11/01 10:09:05;;;;;;;17.92;13.05;;;;;;;12.61;52.99;98058.41;2171588;81;20949;-78
2021/11/01 10:12:06;;;;;;;19.62;12.90;;;;;;;12.69;52.83;98061.38;2170680;82;20991;-78
2021/11/01 10:18:25;;;;;;;16.50;12.75;;;;;;;12.85;52.62;98048.14;2171124;82;21060;-78
2021/11/01 10:21:26;;;;;;;18.32;13.13;;;;;;;12.96;52.39;98047.59;2170642;81;20894;-78
2021/11/01 10:24:26;;;;;;;15.30;12.00;;;;;;;12.94;51.41;98038.44;2170841;81;20941;-78
2021/11/01 10:27:27;;;;;;;17.50;12.50;;;;;;;12.97;51.43;98041.47;2169783;81;21007;-78
2021/11/01 10:30:28;;;;;;;16.40;12.15;;;;;;;13.07;51.89;98035.28;2170248;81;21305;-79
2021/11/01 10:33:28;;;;;;;17.20;12.50;;;;;;;13.16;52.05;98036.48;2170497;81;20996;-78
2021/11/01 10:36:29;;;;;;;13.90;11.65;;;;;;;13.29;51.75;98025.01;2170915;81;21447;-78
2021/11/01 10:39:30;;;;;;;14.43;11.80;;;;;;;13.37;51.09;98019.23;2170594;81;20949;-78
2021/11/01 10:42:33;;;;;;;15.60;11.93;;;;;;;13.43;51.46;98014.35;2170864;81;21011;-79
2021/11/01 11:15:07;;;;;;;14.38;11.80;;;;;;;13.99;49.65;97989.98;2161964;82;21351;-78
2021/11/01 11:18:11;;;;;;;;;;;;;;;14.05;49.54;97990.34;2163331;82;20962;-78
2021/11/01 11:21:33;;;;;;;15.23;11.95;;;;;;;14.09;49.29;97981.97;2170028;81;20093;-79
2021/11/01 11:27:22;;;;;;;14.25;10.08;;;;;;;14.05;48.93;97985.53;2160937;82;20961;-79
2021/11/01 11:40:13;;;;;;;12.55;11.25;;;;;;;14.27;49.27;97969.41;2170089;82;21001;-77
2021/11/01 11:44:01;;;;;;;19.27;11.75;;;;;;;14.35;48.80;97975.84;2169840;81;21337;-78
2021/11/01 11:49:35;;;;;;;15.45;11.33;;;;;;;14.42;48.56;97972.25;2169744;82;21391;-80
2021/11/01 11:52:36;;;;;;;13.70;10.65;;;;;;;14.85;54.10;97964.94;2170000;82;21440;-81
2021/11/01 11:55:37;;;;;;;11.70;9.45;;;;;;;15.72;56.76;97966.67;2172155;81;20933;-79
2021/11/01 11:58:38;;;;;;;13.53;10.43;;;;;;;16.26;56.26;97959.68;2170130;82;20933;-79
2021/11/01 12:01:39;;;;;;;14.15;11.25;;;;;;;16.79;54.08;97956.17;2170038;81;21037;-80
2021/11/01 12:04:45;;;;;;;14.85;10.88;;;;;;;17.29;51.62;97949.47;2172184;81;20929;-80
2021/11/01 12:07:42;;;;;;;16.30;10.80;;;;;;;17.51;49.70;97948.41;2170866;81;20949;-80
2021/11/01 12:17:05;;;;;;;16.77;10.93;;;;;;;18.31;49.13;97946.36;2161258;82;21407;-78
2021/11/01 12:20:03;;;;;;;12.18;10.98;;;;;;;18.65;46.50;97946.56;2172159;81;21032;-78
2021/11/01 12:23:03;;;;;;;12.23;10.93;;;;;;;18.48;45.59;97940.50;2171724;81;20969;-79
2021/11/01 12:26:04;;;;;;;13.38;11.97;;;;;;;18.66;44.22;97934.61;2170221;82;20992;-80
2021/11/01 12:29:05;;;;;;;17.27;11.35;;;;;;;18.77;44.04;97934.23;2170147;81;20968;-79
2021/11/01 12:32:07;;;;;;;16.30;12.13;;;;;;;18.86;43.28;97935.23;2170055;82;21368;-78
2021/11/01 12:35:12;;;;;;;14.15;12.30;;;;;;;18.67;42.62;97933.70;2171810;81;21052;-79
2021/11/01 12:38:13;;;;;;;15.43;11.70;;;;;;;18.37;41.27;97930.30;2172012;81;21060;-79
2021/11/01 12:41:13;;;;;;;19.15;12.37;;;;;;;17.51;42.08;97932.58;2171166;81;21021;-79
2021/11/01 12:47:59;;;;;;;15.83;12.07;;;;;;;16.41;43.88;97934.72;2172226;82;20993;-80
2021/11/01 12:57:19;;;;;;;16.20;11.57;;;;;;;15.56;45.13;97935.83;2172979;82;21019;-79
2021/11/01 13:00:18;;;;;;;16.80;11.80;;;;;;;15.40;45.25;97937.52;2172745;81;21021;-78
2021/11/01 13:03:20;;;;;;;12.33;11.00;;;;;;;15.19;45.82;97931.83;2172928;81;21086;-78
2021/11/01 13:06:27;;;;;;;15.08;10.82;;;;;;;15.12;46.18;97931.53;2172921;81;20949;-78
2021/11/01 13:09:27;;;;;;;;;;;;;;;15.06;46.36;97926.41;2163658;82;21070;-78
2021/11/01 13:12:43;;;;;;;11.83;10.58;;;;;;;15.02;46.76;97927.36;2172504;81;20097;-78
2021/11/01 13:18:55;;;;;;;13.10;10.30;;;;;;;14.95;47.16;97930.56;2172961;82;21044;-78
2021/11/01 13:21:59;;;;;;;12.18;10.18;;;;;;;14.87;47.34;97926.36;2171976;81;21388;-79
2021/11/01 13:28:15;;;;;;;12.13;9.83;;;;;;;14.80;47.48;97919.50;2107070;84;21027;-79
2021/11/01 13:37:34;;;;;;;14.63;9.50;;;;;;;14.69;47.86;97914.42;2099957;84;21008;-78
2021/11/01 13:40:33;;;;;;;11.75;9.55;;;;;;;14.65;47.48;97912.30;2116781;84;21435;-79
2021/11/01 13:43:35;;;;;;;12.37;10.05;;;;;;;14.59;47.15;97909.79;2108720;83;20982;-79
2021/11/01 13:46:36;;;;;;;11.33;10.00;;;;;;;14.54;47.73;97912.95;2108724;84;21001;-79
2021/11/01 13:49:36;;;;;;;11.75;9.73;;;;;;;14.43;47.73;97904.86;2108381;84;21070;-78
2021/11/01 13:52:40;;;;;;;9.85;8.85;;;;;;;14.43;47.73;97904.86;2108727;84;20993;-78
2021/11/01 13:55:52;;;;;;;10.08;8.68;;;;;;;14.39;47.58;97901.83;2108598;84;21017;-78
2021/11/01 13:58:57;;;;;;;10.38;9.28;;;;;;;14.32;47.41;97895.83;2176498;81;21032;-78
2021/11/01 14:02:13;;;;;;;12.55;9.78;;;;;;;14.22;47.69;97895.13;2128274;84;20989;-78
2021/11/01 14:11:53;;;;;;;13.95;11.38;;;;;;;14.00;47.93;97891.14;2127939;83;21048;-79
2021/11/01 14:31:59;;;;;;;10.55;9.20;;;;;;;13.39;49.59;97899.94;2166368;81;20975;-79
2021/11/01 14:34:50;;;;;;;13.80;9.80;;;;;;;13.27;49.78;97904.91;2125265;84;21407;-78
2021/11/01 15:01:28;;;;;;;13.50;11.38;;;;;;;12.14;52.37;97892.22;2100084;84;21031;-79
2021/11/01 15:43:07;;;;;;;20.27;12.37;;;;;;;10.49;56.26;97900.13;2085756;84;21083;-78
2021/11/01 16:18:34;;;;;;;18.27;12.17;;;;;;;9.54;58.70;97900.16;2030030;87;20975;-79
2021/11/01 16:21:34;;;;;;;19.60;12.67;;;;;;;9.46;59.12;97900.55;2056124;87;20991;-79
2021/11/01 16:24:35;;;;;;;17.43;13.13;;;;;;;9.38;59.36;97907.48;2055853;87;20992;-80
2021/11/01 16:27:44;;;;;;;17.50;12.77;;;;;;;9.30;59.50;97906.60;2056543;87;21137;-79
2021/11/01 16:30:43;;;;;;;18.97;13.33;;;;;;;9.22;59.75;97905.72;2054533;87;21382;-79
2021/11/01 16:33:45;;;;;;;18.77;12.23;;;;;;;9.16;60.12;97905.70;2055316;87;21003;-79
2021/11/01 16:39:59;;;;;;;19.75;13.83;;;;;;;9.01;60.53;97903.93;2029800;87;20982;-79
2021/11/01 16:43:02;;;;;;;19.90;13.00;;;;;;;8.95;60.78;97907.81;2072845;85;21015;-79
2021/11/01 16:46:02;;;;;;;20.53;14.07;;;;;;;8.90;61.04;97911.70;2100251;84;20997;-78
2021/11/01 16:49:02;;;;;;;16.73;13.20;;;;;;;8.84;61.58;97909.52;2100366;85;20980;-79
2021/11/01 16:52:15;;;;;;;16.27;13.63;;;;;;;8.84;61.60;97913.41;2100265;84;20976;-79
2021/11/01 16:55:17;;;;;;;17.73;13.47;;;;;;;8.82;61.73;97909.94;2099710;84;21028;-80
2021/11/01 16:58:39;;;;;;;16.17;13.30;;;;;;;8.73;61.80;97909.47;2099797;84;21016;-80
2021/11/01 17:01:22;;;;;;;18.97;14.53;;;;;;;8.62;62.12;97905.48;2097109;84;21048;-80
2021/11/01 17:04:23;;;;;;;20.40;14.73;;;;;;;8.57;62.53;97912.41;2099997;84;21004;-80
2021/11/01 17:07:35;;;;;;;25.80;15.50;;;;;;;8.51;62.52;97911.50;2100465;85;21352;-81
2021/11/01 17:10:52;;;;;;;20.10;14.53;;;;;;;8.43;63.01;97911.89;2098639;84;21340;-80
2021/11/01 18:45:47;;;;;;;34.70;23.92;;;;;;;7.44;67.15;97876.92;2097980;84;21016;-81
2021/11/01 18:51:49;;;;;;;35.27;24.43;;;;;;;7.32;67.48;97869.89;2097707;85;20968;-80
2021/11/01 18:54:50;;;;;;;34.47;23.90;;;;;;;7.30;68.48;97862.52;2097143;85;21427;-81
2021/11/01 18:57:51;;;;;;;39.33;24.60;;;;;;;7.29;67.71;97861.20;2097716;85;20953;-79
2021/11/01 19:00:51;;;;;;;35.07;23.67;;;;;;;7.25;67.84;97862.91;2097516;84;21008;-80
2021/11/01 19:03:55;;;;;;;37.03;24.93;;;;;;;7.18;67.82;97865.43;2097545;85;20988;-80
2021/11/01 19:07:06;;;;;;;37.73;25.20;;;;;;;7.14;67.79;97867.13;2097782;84;21027;-81
2021/11/01 20:05:51;;;;;;;41.53;26.43;;;;;;;6.73;69.23;97884.81;2097310;84;21394;-81
2021/11/01 20:09:25;;;;;;;41.90;26.60;;;;;;;6.69;69.51;97883.03;2094907;84;20960;-82
2021/11/01 21:27:03;;;;;;;45.03;31.03;;;;;;;5.66;72.00;97853.94;2100659;85;21029;-80
2021/11/01 21:30:04;;;;;;;50.70;32.13;;;;;;;5.61;72.51;97851.70;2100731;84;20965;-79
2021/11/01 21:33:05;;;;;;;46.80;31.10;;;;;;;5.61;72.29;97854.30;2100618;85;21403;-81
2021/11/01 21:36:12;;;;;;;50.73;31.70;;;;;;;5.60;72.33;97857.30;2100219;84;23024;-81
2021/11/01 21:39:11;;;;;;;47.60;31.27;;;;;;;5.57;72.21;97853.38;2100122;84;21020;-81
2021/11/01 21:42:12;;;;;;;46.27;31.57;;;;;;;5.56;72.37;97846.45;2100394;85;21000;-80
2021/11/01 21:45:13;;;;;;;51.10;31.67;;;;;;;5.58;72.46;97848.64;2098587;85;21019;-79
2021/11/01 21:48:13;;;;;;;47.03;30.60;;;;;;;5.64;72.44;97851.75;2098353;84;20980;-81
2021/11/01 21:51:14;;;;;;;48.10;30.23;;;;;;;5.72;72.52;97850.15;2098372;85;21336;-81
2021/11/01 21:54:30;;;;;;;54.50;32.80;;;;;;;5.79;72.41;97840.33;2097750;84;21016;-81
2021/11/01 22:00:45;;;;;;;48.33;31.23;;;;;;;5.83;72.40;97834.34;2070472;85;20961;-80
2021/11/01 22:16:35;;;;;;;51.93;32.73;;;;;;;5.95;72.45;97819.43;2070663;85;21339;-81
2021/11/01 22:19:56;;;;;;;49.97;31.60;;;;;;;5.94;72.43;97808.63;2098292;85;21004;-81
2021/11/01 22:26:00;;;;;;;53.30;33.37;;;;;;;5.96;72.27;97826.35;2070576;85;20991;-81
2021/11/01 22:45:24;;;;;;;53.90;33.07;;;;;;;5.88;72.18;97800.73;2072380;85;21427;-80
2021/11/01 22:58:09;;;;;;;52.70;33.87;;;;;;;5.90;72.52;97805.55;2101132;85;20988;-82
2021/11/01 23:01:22;;;;;;;52.40;33.50;;;;;;;5.96;72.52;97801.74;2100692;85;20960;-82
2021/11/01 23:04:46;;;;;;;51.43;34.20;;;;;;;5.98;72.42;97800.05;2100156;84;21013;-82
2021/11/01 23:34:05;;;;;;;51.20;33.40;;;;;;;5.98;72.15;97769.83;2100334;85;21115;-80
2021/11/01 23:37:06;;;;;;;52.07;32.97;;;;;;;5.94;72.34;97767.18;2100147;85;20996;-82
2021/11/01 23:40:07;;;;;;;50.90;32.97;;;;;;;5.93;72.58;97761.13;2100629;84;20992;-82
2021/11/01 23:43:12;;;;;;;47.63;33.33;;;;;;;5.94;72.58;97760.70;2100801;84;21000;-82
2021/11/01 23:46:13;;;;;;;48.30;33.30;;;;;;;5.91;72.50;97752.89;2097644;82;21387;-81
2021/11/01 23:49:13;;;;;;;54.50;34.07;;;;;;;5.92;72.58;97752.05;2098145;84;20909;-80
2021/11/01 23:52:15;;;;;;;56.33;34.87;;;;;;;5.91;72.56;97749.88;2098153;84;21343;-82
2021/11/01 23:55:16;;;;;;;50.70;32.17;;;;;;;5.92;72.72;97748.16;2097407;84;20983;-82
2021/11/01 23:58:16;;;;;;;50.90;33.47;;;;;;;5.93;72.48;97752.48;2096804;84;21411;-81
